Time;durP1;ratioP1;P1;durP2;ratioP2;P2;SDS_P1;SDS_P2;PMS_P1;PMS_P2;Temp;Humidity;BMP_temperature;BMP_pressure;BME280_temperature;BME280_humidity;BME280_pressure;Samples;Min_cycle;Max_cycle;Signal;HPM_P1;HPM_P2
2022/06/22 00:00:08;;;;;;;41.15;38.35;;;;;;;22.47;100.00;100257.75;5002983;28;20050;-84
2022/06/22 00:02:43;;;;;;;40.38;38.05;;;;;;;22.72;100.00;100264.59;5015150;28;20061;-84
2022/06/22 00:05:21;;;;;;;37.28;34.95;;;;;;;22.54;100.00;100258.16;5005631;28;20407;-83
2022/06/22 00:07:58;;;;;;;38.47;36.25;;;;;;;22.45;100.00;100271.59;5009168;28;20050;-86
2022/06/22 00:10:34;;;;;;;37.53;35.33;;;;;;;22.51;100.00;100266.84;5006442;28;20054;-84
2022/06/22 00:13:04;;;;;;;41.58;39.17;;;;;;;22.33;100.00;100269.34;5008291;28;20050;-84
2022/06/22 00:15:39;;;;;;;45.72;43.17;;;;;;;22.07;100.00;100271.59;4995399;28;20534;-84
2022/06/22 00:18:55;;;;;;;44.33;41.47;;;;;;;22.01;100.00;100271.97;4998344;28;20050;-84
2022/06/22 00:21:35;;;;;;;42.05;39.38;;;;;;;21.82;100.00;100277.38;4965308;28;20051;-83
2022/06/22 00:24:39;;;;;;;42.35;39.80;;;;;;;22.00;100.00;100281.16;4990063;28;20051;-83
2022/06/22 00:27:29;;;;;;;44.03;41.30;;;;;;;21.99;100.00;100283.06;5005827;28;20051;-83
2022/06/22 00:30:23;;;;;;;38.53;36.20;;;;;;;22.10;100.00;100287.22;5013514;28;20486;-83
2022/06/22 00:33:12;;;;;;;38.60;36.30;;;;;;;22.27;100.00;100292.16;5050983;28;20060;-83
2022/06/22 00:35:54;;;;;;;41.97;39.05;;;;;;;21.96;100.00;100287.13;5035814;28;20057;-84
2022/06/22 00:38:33;;;;;;;41.10;38.60;;;;;;;21.58;100.00;100285.53;5038896;28;20045;-83
2022/06/22 00:41:15;;;;;;;39.35;37.17;;;;;;;21.41;100.00;100297.59;5045630;28;20046;-83
2022/06/22 00:43:44;;;;;;;33.63;31.70;;;;;;;21.24;100.00;100294.50;5051598;28;20053;-84
2022/06/22 00:46:19;;;;;;;34.67;32.45;;;;;;;21.00;100.00;100298.00;5044303;28;20147;-83
2022/06/22 00:48:50;;;;;;;35.13;33.22;;;;;;;20.32;100.00;100296.13;5058855;28;20110;-84
2022/06/22 00:51:22;;;;;;;33.80;31.67;;;;;;;20.50;100.00;100293.84;5047032;28;20084;-82
2022/06/22 00:54:01;;;;;;;30.37;28.47;;;;;;;20.52;100.00;100300.59;5043485;28;20046;-84
2022/06/22 00:56:41;;;;;;;33.05;31.17;;;;;;;20.44;100.00;100303.06;5051986;28;20053;-83
2022/06/22 00:59:22;;;;;;;32.83;30.88;;;;;;;19.84;100.00;100324.72;5044213;28;20132;-84
2022/06/22 01:01:56;;;;;;;34.45;31.92;;;;;;;20.01;100.00;100344.03;5043515;28;20104;-84
2022/06/22 01:04:30;;;;;;;33.72;31.67;;;;;;;19.61;100.00;100351.19;5052562;28;20064;-84
2022/06/22 01:07:06;;;;;;;32.22;30.08;;;;;;;19.42;100.00;100345.56;5053375;28;20127;-84
2022/06/22 01:09:41;;;;;;;36.00;33.47;;;;;;;19.16;100.00;100347.53;5046224;28;20092;-84
2022/06/22 01:12:18;;;;;;;39.10;36.38;;;;;;;19.51;100.00;100350.41;5044144;28;20417;-83
2022/06/22 01:15:11;;;;;;;36.67;34.38;;;;;;;19.60;100.00;100354.16;5059860;28;20041;-84
2022/06/22 01:17:49;;;;;;;35.38;33.10;;;;;;;18.84;100.00;100363.97;5060854;28;20087;-82
2022/06/22 01:20:26;;;;;;;39.42;36.60;;;;;;;18.31;100.00;100364.16;5054209;28;20052;-84
2022/06/22 01:23:12;;;;;;;39.58;36.67;;;;;;;18.47;100.00;100358.81;5044586;28;20056;-83
2022/06/22 01:25:54;;;;;;;39.58;37.08;;;;;;;18.54;100.00;100362.03;5045997;28;20061;-83
2022/06/22 01:28:29;;;;;;;42.00;39.30;;;;;;;18.71;100.00;100354.53;5052410;28;20039;-83
2022/06/22 01:31:08;;;;;;;37.58;34.75;;;;;;;18.67;100.00;100363.38;5049630;28;20057;-84
2022/06/22 01:34:15;;;;;;;41.05;37.78;;;;;;;18.70;100.00;100338.66;5057145;28;20048;-84
2022/06/22 01:36:42;;;;;;;35.40;33.00;;;;;;;18.58;100.00;100336.25;5047749;28;20049;-84
2022/06/22 01:39:16;;;;;;;38.85;35.85;;;;;;;18.65;100.00;100338.66;5048869;28;20147;-84
2022/06/22 01:41:57;;;;;;;37.88;34.90;;;;;;;17.75;100.00;100339.75;5048845;28;20054;-83
2022/06/22 01:44:37;;;;;;;35.90;33.30;;;;;;;18.01;100.00;100338.00;5054569;28;20053;-85
2022/06/22 01:47:43;;;;;;;36.00;33.17;;;;;;;17.38;100.00;100343.34;5053286;28;20112;-82
2022/06/22 01:50:27;;;;;;;37.75;34.88;;;;;;;17.42;100.00;100343.63;5057546;28;20053;-84
2022/06/22 01:53:12;;;;;;;37.75;34.55;;;;;;;17.37;100.00;100336.38;5044256;28;20110;-83
2022/06/22 01:55:52;;;;;;;35.30;32.22;;;;;;;17.23;100.00;100342.47;5043708;28;20052;-84
2022/06/22 01:59:03;;;;;;;38.33;34.83;;;;;;;17.03;100.00;100346.59;5051794;28;20072;-83
2022/06/22 02:01:37;;;;;;;34.42;31.80;;;;;;;17.03;100.00;100353.84;5139491;22;20144;-85
2022/06/22 02:04:18;;;;;;;42.13;38.60;;;;;;;16.22;100.00;100362.75;5022004;28;20046;-85
2022/06/22 02:09:57;;;;;;;40.85;37.08;;;;;;;17.07;100.00;100349.59;5020791;28;20103;-86
2022/06/22 02:12:30;;;;;;;41.42;38.03;;;;;;;16.89;100.00;100345.44;5012778;28;20041;-85
2022/06/22 02:15:01;;;;;;;;;;;;;;;16.36;100.00;100352.44;5011962;28;20058;-85
2022/06/22 02:17:33;;;;;;;43.45;39.30;;;;;;;16.26;100.00;100351.28;5026133;28;20298;-86
2022/06/22 02:20:38;;;;;;;39.55;36.10;;;;;;;15.45;100.00;100355.63;5021500;28;20046;-85
2022/06/22 02:23:16;;;;;;;37.67;34.42;;;;;;;16.19;100.00;100360.59;5012891;28;20058;-86
2022/06/22 02:25:55;;;;;;;38.58;35.13;;;;;;;16.57;100.00;100354.25;5016291;28;20139;-85
2022/06/22 02:28:23;;;;;;;36.03;32.83;;;;;;;15.92;100.00;100353.31;5026413;28;20046;-86
2022/06/22 02:30:55;;;;;;;37.03;33.35;;;;;;;16.13;100.00;100357.03;5019605;28;20054;-85
2022/06/22 02:33:24;;;;;;;38.08;35.05;;;;;;;15.96;100.00;100372.38;5022246;28;20046;-85
2022/06/22 02:36:03;;;;;;;35.88;32.88;;;;;;;15.78;100.00;100384.19;5027773;28;20049;-86
2022/06/22 02:38:31;;;;;;;34.33;30.90;;;;;;;16.07;100.00;100389.34;5025865;28;20089;-84
2022/06/22 02:46:46;;;;;;;33.92;30.85;;;;;;;15.54;100.00;100399.63;5009121;28;20048;-84
2022/06/22 02:49:24;;;;;;;36.85;33.33;;;;;;;15.28;100.00;100409.13;5038086;28;20053;-86
2022/06/22 02:52:03;;;;;;;36.03;32.90;;;;;;;15.61;100.00;100396.78;5010118;28;20058;-84
2022/06/22 02:54:36;;;;;;;39.72;36.45;;;;;;;15.89;100.00;100401.22;5038758;28;20104;-84
2022/06/22 02:57:16;;;;;;;37.60;34.28;;;;;;;16.13;100.00;100397.22;5031745;28;20057;-85
2022/06/22 02:59:46;;;;;;;37.78;34.63;;;;;;;16.17;100.00;100386.81;5015745;28;20050;-85
2022/06/22 03:02:13;;;;;;;43.20;39.60;;;;;;;16.19;100.00;100385.50;5023234;28;20053;-85
2022/06/22 03:04:49;;;;;;;41.30;37.83;;;;;;;16.21;100.00;100377.19;5023214;28;20114;-84
2022/06/22 03:07:42;;;;;;;35.25;32.63;;;;;;;16.27;100.00;100386.91;5020665;28;20058;-84
2022/06/22 03:10:22;;;;;;;40.70;37.75;;;;;;;16.36;100.00;100382.72;5038604;28;20056;-85
2022/06/22 03:13:18;;;;;;;38.65;35.47;;;;;;;16.21;100.00;100391.41;5029045;28;20080;-85
2022/06/22 03:15:47;;;;;;;44.38;41.08;;;;;;;16.13;100.00;100396.41;5002814;28;20107;-85
2022/06/22 03:18:23;;;;;;;40.70;37.75;;;;;;;15.87;100.00;100393.41;5034057;28;20057;-85
2022/06/22 03:20:59;;;;;;;39.72;36.75;;;;;;;16.46;100.00;100377.47;5035775;28;20076;-85
2022/06/22 03:23:40;;;;;;;38.75;35.83;;;;;;;16.48;100.00;100372.66;5029449;28;20056;-84
2022/06/22 03:26:13;;;;;;;37.45;34.53;;;;;;;16.35;100.00;100377.63;5029778;28;20050;-83
2022/06/22 03:28:51;;;;;;;37.05;33.85;;;;;;;16.70;100.00;100369.94;5013141;28;20061;-83
2022/06/22 03:31:26;;;;;;;36.03;33.38;;;;;;;16.75;100.00;100381.75;5021145;28;20050;-83
2022/06/22 03:33:59;;;;;;;38.53;35.35;;;;;;;16.70;100.00;100387.88;5020015;28;20046;-86
2022/06/22 03:36:36;;;;;;;;;;;;;;;16.58;100.00;100392.59;5036194;28;20141;-85
2022/06/22 03:39:14;;;;;;;36.05;33.20;;;;;;;16.02;100.00;100406.19;5032525;28;19912;-86
2022/06/22 03:42:07;;;;;;;34.78;32.10;;;;;;;16.48;100.00;100417.41;5036641;28;20090;-89
2022/06/22 03:44:41;;;;;;;36.55;33.45;;;;;;;16.92;100.00;100412.78;5020443;28;20042;-86
2022/06/22 03:47:15;;;;;;;33.70;31.20;;;;;;;17.10;100.00;100413.47;5012794;28;20046;-84
2022/06/22 03:49:50;;;;;;;34.35;31.77;;;;;;;17.12;100.00;100409.44;5025058;28;20096;-85
2022/06/22 03:52:31;;;;;;;36.92;34.22;;;;;;;17.23;100.00;100404.19;5025734;28;20053;-85
2022/06/22 03:55:04;;;;;;;34.55;31.88;;;;;;;17.55;100.00;100407.63;5019504;28;20467;-85
2022/06/22 03:57:36;;;;;;;44.13;41.22;;;;;;;17.48;100.00;100411.59;5031281;28;20050;-85
2022/06/22 04:00:12;;;;;;;42.15;38.85;;;;;;;17.20;100.00;100416.22;5021714;28;20046;-85
2022/06/22 04:02:41;;;;;;;44.72;41.83;;;;;;;17.70;100.00;100420.34;5017496;28;20050;-84
2022/06/22 04:05:16;;;;;;;52.67;47.92;;;;;;;17.87;100.00;100411.31;5025080;28;20057;-83
2022/06/22 04:07:46;;;;;;;52.35;48.45;;;;;;;18.08;100.00;100415.69;5005270;28;20057;-86
2022/06/22 04:10:30;;;;;;;54.97;50.05;;;;;;;18.19;100.00;100408.47;5018376;28;20050;-85
2022/06/22 04:12:58;;;;;;;35.90;33.60;;;;;;;17.97;100.00;100400.59;5024802;28;20054;-84
2022/06/22 04:15:38;;;;;;;37.58;34.50;;;;;;;17.98;100.00;100402.22;5007456;28;20042;-85
2022/06/22 04:18:11;;;;;;;39.20;36.30;;;;;;;18.07;100.00;100409.50;5019425;28;20049;-85
2022/06/22 04:20:51;;;;;;;35.90;33.35;;;;;;;18.35;100.00;100414.72;5022851;28;20053;-84
2022/06/22 04:23:28;;;;;;;39.88;36.97;;;;;;;18.27;100.00;100402.56;5020727;28;20045;-86
2022/06/22 04:26:00;;;;;;;39.35;36.28;;;;;;;18.50;100.00;100404.00;5018754;28;20050;-84
2022/06/22 04:28:38;;;;;;;33.25;30.95;;;;;;;18.53;100.00;100395.38;5028125;28;20124;-85
2022/06/22 04:31:08;;;;;;;33.00;30.77;;;;;;;18.79;100.00;100396.28;5024760;28;20092;-83
2022/06/22 04:34:00;;;;;;;35.00;32.20;;;;;;;18.85;100.00;100383.59;5020663;28;20060;-86
2022/06/22 04:36:41;;;;;;;32.33;29.92;;;;;;;19.02;100.00;100384.16;5013019;28;20050;-85
2022/06/22 04:39:25;;;;;;;31.30;28.88;;;;;;;19.21;100.00;100370.94;5011097;28;20061;-84
2022/06/22 04:42:01;;;;;;;32.92;30.40;;;;;;;19.06;100.00;100374.44;5021587;28;20478;-84
2022/06/22 04:44:32;;;;;;;36.05;33.60;;;;;;;19.49;100.00;100379.53;5023006;28;20041;-83
2022/06/22 04:47:13;;;;;;;34.00;31.42;;;;;;;19.65;100.00;100390.00;5025139;28;20060;-84
2022/06/22 04:49:49;;;;;;;34.40;31.92;;;;;;;19.63;100.00;100394.81;5018639;28;20123;-84
2022/06/22 04:52:25;;;;;;;34.92;32.13;;;;;;;19.53;100.00;100397.53;5021498;28;20058;-84
2022/06/22 04:54:58;;;;;;;33.20;30.75;;;;;;;20.04;100.00;100402.00;5019052;28;20060;-85
2022/06/22 04:57:37;;;;;;;32.38;29.90;;;;;;;20.05;100.00;100398.19;5018399;28;20056;-84
2022/06/22 05:00:08;;;;;;;34.28;31.70;;;;;;;20.29;100.00;100396.47;5022166;28;20131;-85
2022/06/22 05:02:38;;;;;;;38.22;35.67;;;;;;;20.42;100.00;100396.94;5015338;28;20050;-83
2022/06/22 05:05:16;;;;;;;36.38;33.60;;;;;;;20.25;100.00;100400.00;5020898;28;20128;-85
2022/06/22 05:07:56;;;;;;;36.95;34.17;;;;;;;20.49;100.00;100411.72;5036219;28;20060;-85
2022/06/22 05:10:35;;;;;;;33.83;31.40;;;;;;;20.74;100.00;100418.06;5027571;28;20046;-85
2022/06/22 05:13:05;;;;;;;35.95;33.40;;;;;;;20.98;100.00;100420.88;5027687;28;20042;-84
2022/06/22 05:15:36;;;;;;;32.92;30.67;;;;;;;21.30;100.00;100424.91;5024073;28;20053;-85
2022/06/22 05:18:23;;;;;;;32.20;30.10;;;;;;;21.27;100.00;100428.97;5018573;28;20131;-85
2022/06/22 05:20:54;;;;;;;35.97;33.55;;;;;;;21.26;100.00;100432.75;5021429;28;20057;-83
2022/06/22 05:23:24;;;;;;;34.38;32.05;;;;;;;21.50;100.00;100425.53;5024813;28;20053;-83
2022/06/22 05:25:56;;;;;;;36.88;34.38;;;;;;;21.41;100.00;100413.75;5012895;28;20052;-83
2022/06/22 05:28:33;;;;;;;33.13;30.80;;;;;;;21.50;100.00;100420.13;5017408;28;20049;-86
2022/06/22 05:31:04;;;;;;;32.60;30.05;;;;;;;21.18;100.00;100430.66;5018381;28;20111;-84
2022/06/22 05:33:31;;;;;;;33.35;30.85;;;;;;;21.25;100.00;100423.88;5016678;28;20046;-85
2022/06/22 05:36:05;;;;;;;31.95;29.50;;;;;;;21.73;100.00;100431.25;5025057;28;20056;-84
2022/06/22 05:38:35;;;;;;;31.00;29.00;;;;;;;22.69;100.00;100439.22;5022437;28;20513;-84
2022/06/22 05:41:07;;;;;;;29.17;27.20;;;;;;;22.48;100.00;100444.16;5016024;28;20046;-84
2022/06/22 05:43:38;;;;;;;29.55;27.02;;;;;;;21.78;100.00;100439.28;5027082;28;20052;-83
2022/06/22 05:46:07;;;;;;;27.33;25.63;;;;;;;22.18;100.00;100443.47;5012297;28;20142;-83
2022/06/22 05:48:46;;;;;;;27.95;26.25;;;;;;;22.15;100.00;100435.91;5027614;28;20041;-84
2022/06/22 05:51:25;;;;;;;27.65;25.75;;;;;;;22.17;100.00;100446.44;5030286;28;20425;-83
2022/06/22 05:54:01;;;;;;;29.70;27.67;;;;;;;22.47;100.00;100444.44;5010586;28;20414;-86
2022/06/22 05:56:35;;;;;;;27.50;25.70;;;;;;;22.13;100.00;100440.78;5012011;28;20050;-83
2022/06/22 05:59:15;;;;;;;27.85;25.55;;;;;;;22.08;100.00;100432.72;5003954;28;20065;-85
2022/06/22 06:01:49;;;;;;;31.75;29.42;;;;;;;21.99;100.00;100422.84;5012207;28;20123;-85
2022/06/22 06:04:24;;;;;;;28.80;26.77;;;;;;;21.95;100.00;100422.63;5022063;28;20049;-84
2022/06/22 06:07:01;;;;;;;28.70;26.75;;;;;;;22.38;100.00;100430.75;4996724;28;20050;-84
2022/06/22 06:09:33;;;;;;;27.38;25.55;;;;;;;22.47;100.00;100428.19;5006587;28;20121;-83
2022/06/22 06:12:08;;;;;;;27.55;25.55;;;;;;;22.85;100.00;100435.22;5006913;28;20038;-84
2022/06/22 06:14:46;;;;;;;27.77;26.20;;;;;;;22.94;100.00;100429.97;5017535;28;20053;-84
2022/06/22 06:17:18;;;;;;;31.60;29.38;;;;;;;22.77;100.00;100444.00;5011299;28;20038;-85
2022/06/22 06:19:52;;;;;;;30.35;28.17;;;;;;;22.65;100.00;100435.50;5008705;28;20050;-84
2022/06/22 06:22:20;;;;;;;28.20;26.38;;;;;;;22.89;100.00;100434.63;5014993;28;20056;-86
2022/06/22 06:27:41;;;;;;;27.30;25.67;;;;;;;23.14;100.00;100436.94;5014559;28;20049;-85
2022/06/22 06:30:15;;;;;;;27.25;25.08;;;;;;;23.50;100.00;100428.97;5016900;28;20143;-85
2022/06/22 06:32:47;;;;;;;35.83;29.73;;;;;;;23.28;100.00;100426.16;5014251;28;20053;-84
2022/06/22 06:35:17;;;;;;;;;;;;;;;23.64;100.00;100431.72;5017290;28;20375;-84
2022/06/22 06:41:31;;;;;;;28.17;26.30;;;;;;;24.92;100.00;100416.25;5002054;28;20057;-84
2022/06/22 06:44:02;;;;;;;29.23;27.05;;;;;;;24.02;100.00;100425.31;5020377;28;20112;-84
2022/06/22 06:46:34;;;;;;;26.92;25.02;;;;;;;23.95;100.00;100421.09;5013452;28;20054;-81
2022/06/22 06:52:07;;;;;;;27.25;25.13;;;;;;;23.85;100.00;100421.31;5019685;28;20412;-81
2022/06/22 06:54:41;;;;;;;29.77;27.88;;;;;;;24.12;100.00;100425.91;5013750;28;20045;-84
2022/06/22 06:57:13;;;;;;;33.83;32.15;;;;;;;24.37;100.00;100413.69;5019518;28;20037;-84
2022/06/22 06:59:45;;;;;;;33.72;31.33;;;;;;;24.55;100.00;100411.19;5034616;28;20046;-84
2022/06/22 07:02:17;;;;;;;32.85;31.05;;;;;;;24.59;100.00;100401.31;5027296;28;20061;-82
2022/06/22 07:04:51;;;;;;;34.30;32.20;;;;;;;24.48;100.00;100400.75;5021561;28;20057;-83
2022/06/22 07:07:29;;;;;;;35.05;33.05;;;;;;;24.34;100.00;100399.94;5014997;28;20084;-85
2022/06/22 07:10:01;;;;;;;31.83;29.42;;;;;;;24.85;100.00;100393.34;5014449;28;20046;-84
2022/06/22 07:12:33;;;;;;;32.40;30.17;;;;;;;24.41;100.00;100397.59;5011020;28;20049;-83
2022/06/22 07:15:03;;;;;;;;;;;;;;;23.76;100.00;100401.44;5012697;28;20050;-83
2022/06/22 07:17:32;;;;;;;32.00;29.60;;;;;;;24.00;100.00;100395.78;5010945;28;19921;-84
2022/06/22 07:20:17;;;;;;;34.92;32.83;;;;;;;24.81;100.00;100414.06;5016983;28;20077;-85
2022/06/22 07:22:59;;;;;;;32.22;29.95;;;;;;;24.85;100.00;100407.72;5030670;28;21104;-85
2022/06/22 07:25:34;;;;;;;33.72;31.17;;;;;;;24.76;100.00;100408.78;5011070;28;20077;-84
2022/06/22 07:28:14;;;;;;;31.23;29.02;;;;;;;25.00;100.00;100401.13;5004883;28;20116;-84
2022/06/22 07:30:54;;;;;;;32.22;30.13;;;;;;;25.68;100.00;100396.34;5018102;28;20057;-85
2022/06/22 07:33:32;;;;;;;29.33;27.60;;;;;;;25.61;100.00;100393.28;5002462;28;20069;-84
2022/06/22 07:36:05;;;;;;;30.15;28.30;;;;;;;25.42;100.00;100400.88;5012942;28;20059;-86
2022/06/22 07:38:46;;;;;;;30.55;28.60;;;;;;;25.61;100.00;100404.16;5015770;28;20046;-85
2022/06/22 07:41:19;;;;;;;30.05;28.15;;;;;;;25.15;100.00;100410.03;5012636;28;20053;-84
2022/06/22 07:43:49;;;;;;;31.55;29.17;;;;;;;25.48;100.00;100408.59;5011478;28;20045;-85
2022/06/22 07:46:27;;;;;;;30.75;28.67;;;;;;;25.55;97.59;100406.22;5026830;28;20049;-84
2022/06/22 07:48:59;;;;;;;30.75;28.90;;;;;;;25.59;100.00;100396.31;5013498;28;20413;-84
2022/06/22 07:51:30;;;;;;;30.85;29.08;;;;;;;25.30;95.13;100399.56;5026169;28;20061;-84
2022/06/22 07:54:04;;;;;;;31.83;29.83;;;;;;;25.74;100.00;100405.97;5017282;28;20045;-83
2022/06/22 07:56:46;;;;;;;30.92;29.00;;;;;;;25.73;100.00;100407.09;5013156;28;20053;-83
2022/06/22 07:59:18;;;;;;;32.78;30.30;;;;;;;25.89;96.93;100406.69;5009042;28;20046;-82
2022/06/22 08:01:50;;;;;;;30.55;28.75;;;;;;;26.20;94.88;100414.75;5006768;28;20136;-84
2022/06/22 08:04:23;;;;;;;31.85;29.98;;;;;;;26.40;88.59;100414.13;5007744;28;20486;-84
2022/06/22 08:06:56;;;;;;;34.33;31.98;;;;;;;26.07;70.42;100400.16;5010778;28;20108;-84
2022/06/22 08:09:28;;;;;;;33.63;31.63;;;;;;;26.12;68.37;100401.94;5024553;28;20470;-83
2022/06/22 08:12:09;;;;;;;32.08;29.77;;;;;;;26.21;84.69;100416.38;5032357;28;20050;-84
2022/06/22 08:14:48;;;;;;;31.17;28.95;;;;;;;26.20;79.55;100421.00;5019148;28;20081;-84
2022/06/22 08:17:32;;;;;;;32.53;30.15;;;;;;;25.86;49.92;100404.59;5016974;28;20050;-83
2022/06/22 08:19:59;;;;;;;29.83;28.02;;;;;;;26.05;51.13;100402.38;5019858;28;20053;-84
2022/06/22 08:22:27;;;;;;;32.15;29.80;;;;;;;26.38;49.22;100407.41;5016137;28;20054;-85
2022/06/22 08:25:05;;;;;;;29.55;27.50;;;;;;;26.57;59.54;100407.13;5021270;28;20046;-83
2022/06/22 08:27:39;;;;;;;31.90;29.70;;;;;;;27.04;48.58;100405.28;5018207;28;20069;-86
2022/06/22 08:30:09;;;;;;;31.20;29.30;;;;;;;26.68;84.76;100400.22;5004484;28;20478;-84
2022/06/22 08:32:44;;;;;;;31.92;29.90;;;;;;;27.21;59.44;100406.41;5010834;28;20045;-85
2022/06/22 08:35:16;;;;;;;35.75;33.50;;;;;;;26.88;69.26;100399.56;5017184;28;20394;-84
2022/06/22 08:37:47;;;;;;;;;;;;;;;26.28;64.51;100392.19;5022310;28;20061;-84
2022/06/22 08:40:24;;;;;;;33.17;30.95;;;;;;;26.68;63.82;100381.16;5016092;28;19968;-84
2022/06/22 08:42:59;;;;;;;31.73;29.92;;;;;;;26.14;92.84;100389.59;5019066;28;20054;-83
2022/06/22 08:45:52;;;;;;;32.75;30.80;;;;;;;26.06;69.04;100390.41;5018129;28;20054;-84
2022/06/22 08:48:40;;;;;;;33.65;31.95;;;;;;;26.13;64.44;100396.16;4991947;28;20518;-83
2022/06/22 08:51:18;;;;;;;36.75;34.45;;;;;;;26.47;75.39;100392.66;5019452;28;20119;-85
2022/06/22 08:54:04;;;;;;;33.10;30.70;;;;;;;26.46;56.61;100401.16;5020769;28;20053;-84
2022/06/22 08:56:41;;;;;;;30.20;28.40;;;;;;;26.90;73.08;100399.22;5017558;28;20042;-83
2022/06/22 08:59:43;;;;;;;32.38;30.35;;;;;;;26.84;63.99;100395.06;5019367;28;20056;-85
2022/06/22 09:02:30;;;;;;;33.88;31.40;;;;;;;26.88;79.67;100390.59;5014262;28;20080;-84
2022/06/22 09:05:33;;;;;;;33.40;31.35;;;;;;;27.01;59.94;100389.59;5014258;28;20124;-86
2022/06/22 09:08:55;;;;;;;31.38;29.30;;;;;;;27.62;70.14;100382.00;5015779;28;20462;-85
2022/06/22 09:11:34;;;;;;;29.48;27.50;;;;;;;26.90;47.38;100370.06;5001493;28;20042;-85
2022/06/22 09:14:21;;;;;;;28.63;26.95;;;;;;;27.04;50.35;100371.78;5009208;28;20049;-86
2022/06/22 09:17:10;;;;;;;32.67;30.27;;;;;;;26.95;75.92;100367.16;5010764;28;20061;-87
2022/06/22 09:19:55;;;;;;;30.60;29.05;;;;;;;26.94;76.33;100365.56;5010279;28;20056;-85
2022/06/22 09:22:38;;;;;;;31.20;29.25;;;;;;;26.67;77.51;100358.56;5016165;28;20129;-85
2022/06/22 09:25:26;;;;;;;30.95;28.90;;;;;;;27.06;73.28;100362.19;5011904;28;20054;-86
2022/06/22 09:28:10;;;;;;;30.60;28.75;;;;;;;27.33;44.16;100358.25;5026332;28;20056;-87
2022/06/22 09:31:11;;;;;;;30.65;28.38;;;;;;;27.76;51.18;100346.31;5012988;28;20061;-84
2022/06/22 09:34:04;;;;;;;31.67;29.67;;;;;;;27.79;43.79;100340.25;5015842;28;20046;-87
2022/06/22 09:36:54;;;;;;;33.58;31.67;;;;;;;27.65;51.47;100350.56;4974943;28;20491;-85
2022/06/22 09:39:45;;;;;;;39.63;37.28;;;;;;;27.75;55.00;100352.91;5015984;28;20046;-85
2022/06/22 09:42:34;;;;;;;33.13;30.88;;;;;;;27.77;46.54;100347.91;5013237;28;20050;-84
2022/06/22 09:45:20;;;;;;;35.00;32.92;;;;;;;28.12;53.36;100352.38;5015801;28;20079;-84
2022/06/22 09:48:03;;;;;;;36.30;34.05;;;;;;;28.03;45.45;100339.59;5004565;28;20474;-84
2022/06/22 09:51:10;;;;;;;31.08;28.98;;;;;;;27.47;74.58;100355.31;5013081;28;20050;-86
2022/06/22 09:56:19;;;;;;;32.97;30.63;;;;;;;28.02;43.74;100348.09;5024426;28;20058;-85
2022/06/22 09:57:16;;;;;;;34.50;32.28;;;;;;;28.76;45.74;100346.53;5016412;28;20068;-85
2022/06/22 10:00:09;;;;;;;32.83;30.73;;;;;;;28.08;49.73;100353.06;5014888;28;20434;-82
2022/06/22 10:03:11;;;;;;;33.00;30.80;;;;;;;27.86;55.72;100337.78;4992513;28;20050;-81
2022/06/22 10:06:10;;;;;;;28.00;26.40;;;;;;;27.55;44.22;100331.84;5009463;28;20516;-82
2022/06/22 10:09:16;;;;;;;30.98;28.73;;;;;;;28.25;45.96;100330.25;5011516;28;20049;-83
2022/06/22 10:11:51;;;;;;;32.83;30.60;;;;;;;28.54;47.70;100342.25;5001564;28;20049;-83
2022/06/22 10:14:50;;;;;;;33.15;31.05;;;;;;;28.14;56.81;100334.56;5021148;28;20405;-83
2022/06/22 10:17:40;;;;;;;39.63;37.33;;;;;;;28.43;42.86;100338.34;5010745;28;20060;-86
2022/06/22 10:20:32;;;;;;;32.83;30.38;;;;;;;27.98;39.85;100339.78;5009306;28;20049;-85
2022/06/22 10:23:12;;;;;;;33.45;31.33;;;;;;;28.02;45.66;100339.91;5017335;28;20046;-82
2022/06/22 10:26:03;;;;;;;34.45;32.40;;;;;;;27.46;52.58;100361.09;5014201;28;20046;-84
2022/06/22 10:28:57;;;;;;;37.33;35.13;;;;;;;27.47;51.32;100352.56;5016149;28;20042;-84
2022/06/22 10:31:44;;;;;;;36.63;34.13;;;;;;;28.92;42.66;100344.75;5018066;28;20042;-85
2022/06/22 10:34:40;;;;;;;34.90;32.80;;;;;;;28.31;63.41;100349.97;5016456;28;20138;-83
2022/06/22 10:37:40;;;;;;;36.75;34.28;;;;;;;28.15;40.96;100347.06;5011955;28;20104;-82
2022/06/22 10:46:38;;;;;;;30.85;28.95;;;;;;;28.05;45.44;100336.56;5012763;28;20056;-86
2022/06/22 10:49:42;;;;;;;31.20;28.88;;;;;;;29.25;43.03;100327.50;5016304;28;20050;-85
2022/06/22 10:52:39;;;;;;;30.67;28.35;;;;;;;29.19;40.86;100324.19;5029934;28;20046;-83
2022/06/22 10:55:35;;;;;;;30.42;28.23;;;;;;;28.64;55.39;100325.44;5002019;28;20049;-83
2022/06/22 10:58:20;;;;;;;32.22;29.30;;;;;;;28.06;59.96;100338.94;5021775;28;20120;-83
2022/06/22 11:01:06;;;;;;;31.80;29.38;;;;;;;28.16;59.65;100348.66;5014287;28;20041;-83
2022/06/22 11:04:29;;;;;;;31.77;29.58;;;;;;;28.72;51.37;100331.97;5020325;28;20045;-85
2022/06/22 11:07:30;;;;;;;31.65;29.38;;;;;;;27.88;65.87;100336.66;5012103;28;20053;-83
2022/06/22 11:10:34;;;;;;;29.92;27.73;;;;;;;28.94;57.37;100331.53;5000778;28;20120;-83
2022/06/22 11:13:40;;;;;;;30.00;27.88;;;;;;;28.78;44.67;100333.34;5007520;28;20050;-86
2022/06/22 11:16:47;;;;;;;31.90;29.50;;;;;;;28.93;46.36;100334.63;4985670;28;20054;-85
2022/06/22 11:19:40;;;;;;;31.88;29.98;;;;;;;29.50;38.64;100319.28;4975492;28;20125;-86
2022/06/22 11:22:27;;;;;;;32.65;30.65;;;;;;;29.02;55.79;100329.06;5014182;28;20050;-86
2022/06/22 11:31:56;;;;;;;29.70;27.80;;;;;;;28.48;37.92;100324.47;5008527;28;20081;-83
2022/06/22 11:34:58;;;;;;;30.00;27.95;;;;;;;29.33;47.13;100314.88;5025280;28;20149;-83
2022/06/22 11:41:33;;;;;;;35.97;33.58;;;;;;;29.25;36.51;100313.03;5008522;28;20053;-87
2022/06/22 11:47:58;;;;;;;30.58;28.65;;;;;;;29.73;28.37;100305.97;4993192;28;20481;-84
2022/06/22 11:50:40;;;;;;;29.23;27.20;;;;;;;30.54;30.40;100314.97;4984739;28;20049;-81
2022/06/22 11:53:34;;;;;;;31.83;29.73;;;;;;;30.42;43.61;100304.84;5012667;28;20505;-84
2022/06/22 11:56:12;;;;;;;31.23;29.08;;;;;;;30.22;34.28;100301.16;5010227;28;20076;-85
2022/06/22 11:58:59;;;;;;;27.10;25.33;;;;;;;29.52;27.88;100301.41;5016102;28;20557;-85
2022/06/22 12:01:47;;;;;;;30.33;27.88;;;;;;;29.39;34.89;100288.88;5016541;28;20054;-84
2022/06/22 12:04:47;;;;;;;38.72;36.05;;;;;;;29.42;31.54;100299.13;5008866;28;20052;-86
2022/06/22 12:07:55;;;;;;;34.08;31.67;;;;;;;29.95;35.18;100297.22;5015148;28;20481;-83
2022/06/22 12:10:46;;;;;;;30.02;28.00;;;;;;;29.69;30.81;100294.91;4988009;28;20054;-83
2022/06/22 12:13:36;;;;;;;28.30;26.17;;;;;;;29.24;45.56;100300.53;5018812;28;20054;-82
2022/06/22 12:16:37;;;;;;;;;;;;;;;;;;;;;
2022/06/22 12:19:23;;;;;;;30.03;27.90;;;;;;;29.58;32.05;100278.13;5014110;28;20041;-83
2022/06/22 12:22:16;;;;;;;28.25;26.25;;;;;;;29.40;35.63;100282.28;5014678;28;20304;-84
2022/06/22 12:25:01;;;;;;;28.17;26.17;;;;;;;29.75;33.08;100290.00;5013212;28;20046;-83
2022/06/22 12:27:32;;;;;;;31.23;29.15;;;;;;;29.73;33.40;100284.06;5008498;28;20046;-82
2022/06/22 12:30:44;;;;;;;31.60;29.50;;;;;;;30.90;35.66;100296.75;5017509;28;20050;-85
2022/06/22 12:33:26;;;;;;;31.13;29.02;;;;;;;30.23;32.23;100288.25;4976063;28;20055;-83
2022/06/22 12:36:01;;;;;;;28.90;26.70;;;;;;;29.11;47.60;100286.84;5009640;28;20409;-83
2022/06/22 12:38:34;;;;;;;31.35;28.98;;;;;;;29.45;38.46;100282.03;4996023;28;20042;-82
2022/06/22 12:41:16;;;;;;;30.15;28.45;;;;;;;29.08;45.89;100281.22;5007063;28;20221;-84
2022/06/22 12:44:07;;;;;;;31.15;29.45;;;;;;;30.05;31.61;100272.13;5015311;28;20054;-83
2022/06/22 12:47:01;;;;;;;35.22;32.92;;;;;;;29.55;31.33;100281.56;5018664;28;20184;-83